Mudcat — WCY8255 — position and weather

sailwx.info

Track history (hours):
 
Tides and Currents Weather Stations Pressure Air Temp Water Temp Dewpoint Dewpoint Depression Visibility Wind Speed Wind Dir Waves Ship Positions

Mudcat

Owner: TAURUS MARINE, SAN FRANCISCO, CA. More information available from US FCC via Universal Licensing System and Coast Guard Vessel Documentation Center.

Last reported at 2015-Apr-14 22:33 UTC. Time now 2015-Apr-18 08:52 UTC.
Position N 47°39' W 122°20'.

Length 22 m; draft 2 m.

Type: Tug. MMSI: 366969750.

Date/timePositionNaut miles runAvg speedWind from/ knotsBaromVisibWave heightAir tempDewpointWater temp
2015-Apr-14 22:33N 47°39' W 122°20'  
2015-Apr-11 00:33N 47°39' W 122°20'4 3.6
2015-Apr-10 23:30N 47°38' W 122°15'0 0.1
2015-Apr-10 22:33N 47°38' W 122°15'0 0.0
2015-Apr-10 21:19N 47°38' W 122°15'0 0.0
2015-Apr-10 20:30N 47°38' W 122°15'0 0.2
2015-Apr-10 19:22N 47°39' W 122°15'0 0.3
2015-Apr-10 18:33N 47°38' W 122°15'0 0.1
2015-Apr-10 17:31N 47°38' W 122°15'0 0.0
2015-Apr-10 16:31N 47°38' W 122°15'1050310862.0
2015-Apr-10 15:33S 88°54' W 005°12'1050610579.7
2015-Apr-10 14:33N 47°39' W 122°20'0 0.0
2015-Apr-10 04:33N 47°39' W 122°20'3 2.5
2015-Apr-10 03:33N 47°39' W 122°17'2 1.9
2015-Apr-10 02:30N 47°39' W 122°20'2 2.5
2015-Apr-10 01:33N 47°40' W 122°23'1 1.0
2015-Apr-10 00:33N 47°40' W 122°24'0 0.1
2015-Apr-09 23:33N 47°40' W 122°24'3 2.7
2015-Apr-09 22:33N 47°39' W 122°21'2 2.4
2015-Apr-09 21:33N 47°39' W 122°17'1 1.3
2015-Apr-09 20:30N 47°39' W 122°15'2 2.2
2015-Apr-09 19:32N 47°39' W 122°19'2 2.2
2015-Apr-09 18:26N 47°39' W 122°22'2 1.3
2015-Apr-09 17:05N 47°40' W 122°24'1 1.6
2015-Apr-09 16:33N 47°40' W 122°26'0 0.0
2015-Apr-09 15:33N 47°40' W 122°26'0 0.0
2015-Apr-09 14:33N 47°40' W 122°26'0 0.0
2015-Apr-09 13:33N 47°40' W 122°26'2 2.2
2015-Apr-09 12:28N 47°39' W 122°22'1 0.1
2015-Apr-08 23:32N 47°39' W 122°20'2 1.0
2015-Apr-08 21:10N 47°40' W 122°23'1 1.1
2015-Apr-08 20:22N 47°39' W 122°22'2 2.1
2015-Apr-08 19:31N 47°39' W 122°20'0 0.4
2015-Apr-08 18:29N 47°39' W 122°20'0 0.0
2015-Apr-07 17:22N 47°39' W 122°20'  
Track history (hours):
 
Tides and Currents Weather Stations Pressure Air Temp Water Temp Dewpoint Dewpoint Depression Visibility Wind Speed Wind Dir Waves Ship Positions

Mudcat

Owner: TAURUS MARINE, SAN FRANCISCO, CA. More information available from US FCC via Universal Licensing System and Coast Guard Vessel Documentation Center.

Last reported at 2015-Apr-14 22:33 UTC. Time now 2015-Apr-18 08:52 UTC.
Position N 47°39' W 122°20'.

Length 22 m; draft 2 m.

Type: Tug. MMSI: 366969750.

Date/timePositionNaut miles runAvg speedWind from/ knotsBaromVisibWave heightAir tempDewpointWater temp
2015-Apr-14 22:33N 47°39' W 122°20'  
2015-Apr-11 00:33N 47°39' W 122°20'4 3.6
2015-Apr-10 23:30N 47°38' W 122°15'0 0.1
2015-Apr-10 22:33N 47°38' W 122°15'0 0.0
2015-Apr-10 21:19N 47°38' W 122°15'0 0.0
2015-Apr-10 20:30N 47°38' W 122°15'0 0.2
2015-Apr-10 19:22N 47°39' W 122°15'0 0.3
2015-Apr-10 18:33N 47°38' W 122°15'0 0.1
2015-Apr-10 17:31N 47°38' W 122°15'0 0.0
2015-Apr-10 16:31N 47°38' W 122°15'1050310862.0
2015-Apr-10 15:33S 88°54' W 005°12'1050610579.7
2015-Apr-10 14:33N 47°39' W 122°20'0 0.0
2015-Apr-10 04:33N 47°39' W 122°20'3 2.5
2015-Apr-10 03:33N 47°39' W 122°17'2 1.9
2015-Apr-10 02:30N 47°39' W 122°20'2 2.5
2015-Apr-10 01:33N 47°40' W 122°23'1 1.0
2015-Apr-10 00:33N 47°40' W 122°24'0 0.1
2015-Apr-09 23:33N 47°40' W 122°24'3 2.7
2015-Apr-09 22:33N 47°39' W 122°21'2 2.4
2015-Apr-09 21:33N 47°39' W 122°17'1 1.3
2015-Apr-09 20:30N 47°39' W 122°15'2 2.2
2015-Apr-09 19:32N 47°39' W 122°19'2 2.2
2015-Apr-09 18:26N 47°39' W 122°22'2 1.3
2015-Apr-09 17:05N 47°40' W 122°24'1 1.6
2015-Apr-09 16:33N 47°40' W 122°26'0 0.0
2015-Apr-09 15:33N 47°40' W 122°26'0 0.0
2015-Apr-09 14:33N 47°40' W 122°26'0 0.0
2015-Apr-09 13:33N 47°40' W 122°26'2 2.2
2015-Apr-09 12:28N 47°39' W 122°22'1 0.1
2015-Apr-08 23:32N 47°39' W 122°20'2 1.0
2015-Apr-08 21:10N 47°40' W 122°23'1 1.1
2015-Apr-08 20:22N 47°39' W 122°22'2 2.1
2015-Apr-08 19:31N 47°39' W 122°20'0 0.4
2015-Apr-08 18:29N 47°39' W 122°20'0 0.0
2015-Apr-07 17:22N 47°39' W 122°20'  

Dump ship's entire track history